Latest Weather Observations for Low Isles

IDQ60801

Issued at 7:42 pm EST Wednesday 19 June 2019 (issued every 10 minutes, with the page automatically refreshed every 10 minutes)

About weather observations | Map of weather stations | Latest weather observations for QLD | Other Formats
Station Details ID: 031037 Name: LOW ISLES LIGHTHOUSE Lat: -16.38 Lon: 145.56 Height: 2.9 m
Data from the previous 72 hours. | See also: Recent months at Low Isles
Date/Time
EST
Temp
°C
App
Temp
°C
Dew
Point
°C
Rel
Hum
%
Delta-T
°C
Wind Press
QNH
hPa
Press
MSL
hPa
Rain since
9am
mm
Dir  Spd
km/h
Gust
km/h
Spd
kts
Gust
kts
19/07:30pm 22.8 20.2 16.8 69 3.7 ESE 26 30 14 16 1016.6 1016.6 0.0
19/07:00pm 22.8 20.1 16.6 68 3.8 ESE 26 32 14 17 1016.4 1016.4 0.0
19/06:30pm 22.8 21.0 17.0 70 3.6 ESE 22 32 12 17 1016.1 1016.1 0.0
19/06:00pm 22.7 20.5 16.9 70 3.6 ESE 24 30 13 16 1015.9 1015.9 0.0
19/05:30pm 23.0 20.6 16.5 67 4.0 ESE 24 30 13 16 1015.6 1015.6 0.0
19/05:00pm 23.1 20.8 16.6 67 4.0 ESE 24 30 13 16 1015.6 1015.6 0.0
19/04:30pm 24.0 21.6 16.5 63 4.6 ESE 24 30 13 16 1015.2 1015.2 0.0
19/04:00pm 24.9 22.5 17.4 63 4.7 ESE 26 32 14 17 1015.0 1015.0 0.0
19/03:30pm 25.3 23.4 17.7 62 4.8 ESE 24 30 13 16 1014.9 1014.9 0.0
19/03:00pm 25.4 23.2 17.8 62 4.8 ESE 26 32 14 17 1014.9 1014.9 0.0
19/02:30pm 25.9 24.6 19.1 66 4.4 ESE 24 32 13 17 1015.1 1015.1 0.0
19/02:00pm 25.8 24.4 18.7 65 4.5 ESE 24 30 13 16 1015.4 1015.4 0.0
19/01:30pm 24.7 22.9 17.9 66 4.3 ESE 24 30 13 16 1015.6 1015.6 0.0
19/01:00pm 25.4 24.0 18.8 67 4.2 ESE 24 32 13 17 1016.1 1016.1 0.0
19/12:30pm 25.5 24.4 19.4 69 3.9 SE 24 30 13 16 1016.5 1016.5 0.0
19/12:00pm 24.0 22.0 18.2 70 3.6 SE 26 32 14 17 1016.9 1016.9 0.0
19/11:30am 23.7 22.2 18.6 73 3.2 SE 24 30 13 16 1017.3 1017.3 0.0
19/11:00am 23.3 21.8 18.6 75 3.0 SE 24 30 13 16 1017.6 1017.6 0.0
19/10:30am 23.3 21.7 18.4 74 3.1 SE 24 28 13 15 1017.9 1017.9 0.0
19/10:00am 22.8 21.5 18.1 75 2.9 SE 22 26 12 14 1018.0 1018.0 0.0
19/09:30am 22.9 22.1 18.4 76 2.8 SSE 20 24 11 13 1017.8 1017.8 0.0
19/09:00am 22.8 21.2 18.3 76 2.8 SSE 24 26 13 14 1017.5 1017.5 0.0
19/08:30am 22.6 21.2 18.8 79 2.4 SSE 24 28 13 15 1017.2 1017.2 0.0
19/08:00am 22.5 20.8 18.9 80 2.3 SSE 26 30 14 16 1017.1 1017.1 0.0
19/07:30am 22.4 21.0 18.8 80 2.3 SSE 24 28 13 15 1016.7 1016.7 0.0
19/07:00am 22.3 21.3 18.9 81 2.1 SSE 22 26 12 14 1016.4 1016.4 0.0
19/06:30am 22.2 21.3 19.0 82 2.0 SSE 22 26 12 14 1016.1 1016.1 0.0
19/06:00am 22.2 21.8 19.0 82 2.0 SE 19 22 10 12 1015.8 1015.8 0.0
19/05:30am 22.3 21.8 19.1 82 2.0 SE 20 22 11 12 1015.5 1015.5 0.0
19/05:00am 22.4 22.0 19.0 81 2.2 SE 19 20 10 11 1015.3 1015.3 0.0
19/04:30am 22.5 22.1 18.9 80 2.3 SE 19 22 10 12 1015.4 1015.4 0.0
19/04:00am 22.6 22.2 19.0 80 2.3 SSE 19 20 10 11 1015.3 1015.3 0.0
19/03:30am 22.6 22.3 19.2 81 2.2 SSE 19 20 10 11 1015.4 1015.4 0.0
19/03:00am 22.7 22.1 18.9 79 2.4 SSE 20 22 11 12 1015.4 1015.4 0.0
19/02:30am 22.8 22.4 19.0 79 2.4 SSE 19 22 10 12 1015.6 1015.6 0.0
19/02:00am 22.7 23.3 19.5 82 2.0 S 15 17 8 9 1015.8 1015.8 0.0
19/01:30am 22.5 23.4 19.3 82 2.0 S 13 15 7 8 1016.0 1016.0 0.0
19/01:00am 22.5 23.0 19.3 82 2.0 S 15 17 8 9 1016.2 1016.2 0.0
19/12:30am 22.5 23.3 19.1 81 2.2 S 13 17 7 9 1016.4 1016.4 0.0
19/12:00am 22.5 23.3 19.1 81 2.2 S 13 15 7 8 1016.5 1016.5 0.0
 
Date/Time
EST
Temp
°C
App
Temp
°C
Dew
Point
°C
Rel
Hum
%
Delta-T
°C
Wind Press
QNH
hPa
Press
MSL
hPa
Rain since
9am
mm
Dir  Spd
km/h
Gust
km/h
Spd
kts
Gust
kts
18/11:30pm 22.6 23.2 19.4 82 2.0 S 15 17 8 9 1016.7 1016.7 0.0
18/11:00pm 22.8 23.8 19.4 81 2.2 S 13 17 7 9 1017.1 1017.1 0.0
18/10:30pm 22.9 24.0 19.7 82 2.1 SSE 13 15 7 8 1017.2 1017.2 0.0
18/10:00pm 23.0 23.4 19.8 82 2.1 SSE 17 19 9 10 1017.4 1017.4 0.0
18/09:30pm 23.0 22.8 19.8 82 2.1 SE 20 22 11 12 1017.3 1017.3 0.0
18/09:00pm 23.0 23.2 20.1 84 1.9 SE 19 20 10 11 1017.1 1017.1 0.0
18/08:30pm 23.1 23.1 20.1 83 1.9 SE 20 22 11 12 1016.8 1016.8 0.0
18/08:00pm 23.1 23.3 20.1 83 1.9 SE 19 22 10 12 1016.6 1016.6 0.0
18/07:30pm 23.1 23.0 19.5 80 2.3 ESE 19 22 10 12 1016.2 1016.2 0.0
18/07:00pm 23.2 23.0 19.4 79 2.4 ESE 19 22 10 12 1016.0 1016.0 0.0
18/06:30pm 23.3 23.1 19.7 80 2.3 SE 20 24 11 13 1015.6 1015.6 0.0
18/06:00pm 23.3 23.3 19.7 80 2.3 ESE 19 22 10 12 1015.3 1015.3 0.0
18/05:30pm 23.5 23.2 19.2 77 2.7 ESE 19 20 10 11 1015.0 1015.0 0.0
18/05:00pm 23.8 23.4 19.3 76 2.9 ESE 20 22 11 12 1014.7 1014.7 0.0
18/04:30pm 24.1 23.6 19.2 74 3.1 SE 20 24 11 13 1014.4 1014.4 0.0
18/04:00pm 24.7 24.4 19.5 73 3.3 SE 20 24 11 13 1014.4 1014.4 0.0
18/03:30pm 25.1 25.1 19.7 72 3.5 SE 19 20 10 11 1014.5 1014.5 0.0
18/03:00pm 25.8 25.4 19.4 67 4.1 SE 20 22 11 12 1014.7 1014.7 0.0
18/02:30pm 26.1 26.2 20.0 69 4.0 SE 19 22 10 12 1015.0 1015.0 0.0
18/02:00pm 25.7 25.6 19.6 69 3.9 SE 19 20 10 11 1015.2 1015.2 0.0
18/01:30pm 25.3 25.3 20.1 73 3.4 ESE 20 24 11 13 1015.4 1015.4 0.0
18/01:00pm 25.3 25.3 19.7 71 3.6 SE 19 22 10 12 1015.8 1015.8 0.0
18/12:30pm 24.8 24.5 19.6 73 3.3 SE 20 22 11 12 1016.2 1016.2 0.0
18/12:00pm 24.6 24.2 19.4 73 3.3 SE 20 22 11 12 1016.7 1016.7 0.0
18/11:30am 24.8 24.4 19.4 72 3.5 SE 20 24 11 13 1017.0 1017.0 0.0
18/11:00am 24.0 23.2 19.3 75 3.0 SE 22 26 12 14 1017.2 1017.2 0.0
18/10:30am 23.4 22.7 18.7 75 3.0 SSE 20 24 11 13 1017.5 1017.5 0.0
18/10:00am 23.1 22.6 18.6 76 2.8 SSE 19 22 10 12 1017.7 1017.7 0.0
18/09:30am 23.0 22.9 18.7 77 2.7 SSE 17 22 9 12 1017.7 1017.7 0.0
18/09:00am 22.7 23.3 18.5 77 2.6 S 13 17 7 9 1017.6 1017.6 0.8
18/08:30am 22.5 22.3 18.5 78 2.5 S 17 19 9 10 1017.2 1017.2 0.8
18/08:00am 22.4 22.5 18.4 78 2.5 S 15 20 8 11 1016.9 1016.9 0.8
18/07:30am 22.2 22.7 19.2 83 1.9 SSW 15 17 8 9 1016.7 1016.7 0.8
18/07:00am 21.8 22.4 18.6 82 2.0 SSW 13 15 7 8 1016.4 1016.4 0.8
18/06:30am 21.8 22.9 18.8 83 1.9 SW 11 13 6 7 1016.1 1016.1 0.8
18/06:00am 22.0 22.9 19.2 84 1.8 SSW 13 15 7 8 1015.9 1015.9 0.8
18/05:30am 22.0 22.6 18.6 81 2.1 SSW 13 15 7 8 1015.7 1015.7 0.8
18/05:00am 22.1 22.5 18.9 82 2.0 S 15 17 8 9 1015.5 1015.5 0.8
18/04:30am 21.9 22.6 18.9 83 1.9 SSW 13 17 7 9 1015.5 1015.5 0.8
18/04:00am 21.8 22.2 19.0 84 1.8 SW 15 19 8 10 1015.2 1015.2 0.8
18/03:30am 22.3 23.1 19.1 82 2.0 SW 13 15 7 8 1015.1 1015.1 0.8
18/03:00am 22.0 23.3 19.4 85 1.7 SW 11 11 6 6 1015.1 1015.1 0.8
18/02:30am 21.8 22.8 19.4 86 1.5 SW 13 15 7 8 1015.3 1015.3 0.8
18/02:00am 22.2 23.9 20.1 88 1.3 SW 11 13 6 7 1015.4 1015.4 0.8
18/01:30am 22.3 23.9 20.0 87 1.5 SW 11 13 6 7 1015.7 1015.7 0.8
18/01:00am 22.4 23.6 19.8 85 1.7 SW 13 15 7 8 1015.9 1015.9 0.8
18/12:30am 22.4 24.1 20.1 87 1.5 SW 11 13 6 7 1016.2 1016.2 0.8
18/12:00am 22.6 24.3 20.1 86 1.6 SSW 11 13 6 7 1016.2 1016.2 0.8
 
Date/Time
EST
Temp
°C
App
Temp
°C
Dew
Point
°C
Rel
Hum
%
Delta-T
°C
Wind Press
QNH
hPa
Press
MSL
hPa
Rain since
9am
mm
Dir  Spd
km/h
Gust
km/h
Spd
kts
Gust
kts
17/11:30pm 23.0 24.2 19.8 82 2.1 SSE 13 15 7 8 1016.5 1016.5 0.8
17/11:00pm 23.0 24.2 20.0 83 1.9 S 13 15 7 8 1016.8 1016.8 0.8
17/10:30pm 23.2 24.2 20.3 84 1.9 SSE 15 17 8 9 1017.0 1017.0 0.8
17/10:00pm 23.2 23.9 20.5 85 1.8 SSE 17 20 9 11 1017.2 1017.2 0.8
17/09:30pm 23.1 24.1 21.0 88 1.4 SE 17 20 9 11 1017.1 1017.1 0.8
17/09:00pm 23.3 24.7 21.0 87 1.5 SSE 15 17 8 9 1017.1 1017.1 0.8
17/08:30pm 23.5 24.8 20.8 85 1.8 SSE 15 19 8 10 1016.9 1016.9 0.8
17/08:00pm 23.4 24.4 20.2 82 2.1 ESE 15 20 8 11 1016.5 1016.5 0.8
17/07:30pm 23.2 24.5 20.2 83 1.9 ESE 13 17 7 9 1016.2 1016.2 0.8
17/07:00pm 23.4 23.9 20.9 86 1.6 SE 19 20 10 11 1015.8 1015.8 0.8
17/06:30pm 23.5 24.2 21.2 87 1.5 SE 19 22 10 12 1015.6 1015.6 0.8
17/06:00pm 23.3 23.3 20.2 83 2.0 ESE 20 26 11 14 1015.4 1015.4 0.8
17/05:30pm 23.4 23.3 20.0 81 2.2 ESE 20 26 11 14 1015.2 1015.2 0.8
17/05:00pm 23.6 22.6 19.7 79 2.5 SE 24 26 13 14 1014.7 1014.7 0.8
17/04:30pm 23.8 23.2 20.5 82 2.1 SE 24 28 13 15 1014.6 1014.6 0.8
17/04:00pm 23.9 24.8 20.8 83 2.0 SE 17 20 9 11 1014.4 1014.4 0.8
17/03:30pm 23.8 25.9 20.1 80 2.4 SSW 9 11 5 6 1014.5 1014.5 0.8
17/03:00pm 23.7 25.9 20.4 82 2.1 SW 9 13 5 7 1014.4 1014.4 0.8
17/02:30pm 23.4 25.6 20.3 83 2.0 S 9 11 5 6 1014.6 1014.6 0.8
17/02:00pm 23.3 27.2 20.4 84 1.9 CALM 0 2 0 1 1014.9 1014.9 0.8
17/01:30pm 23.5 27.6 20.8 85 1.8 CALM 0 0 0 0 1015.3 1015.3 0.8
17/01:00pm 22.9 25.6 20.2 85 1.7 ENE 6 15 3 8 1015.7 1015.7 0.8
17/12:30pm 24.1 27.8 20.0 78 2.6 CALM 0 0 0 0 1016.3 1016.3 0.0
17/12:00pm 24.4 28.0 19.7 75 3.0 CALM 0 0 0 0 1016.6 1016.6 0.0
17/11:30am 24.4 27.8 20.1 77 2.8 ENE 2 6 1 3 1016.8 1016.8 0.0
17/11:00am 24.3 26.8 20.2 78 2.7 NE 7 11 4 6 1016.9 1016.9 0.0
17/10:30am 23.7 24.7 19.4 77 2.7 E 13 17 7 9 1017.1 1017.1 0.0
17/10:00am 24.0 27.1 18.6 72 3.4 CALM 0 2 0 1 1017.1 1017.1 0.0
17/09:30am 23.4 25.2 18.7 75 3.0 SSW 7 9 4 5 1017.1 1017.1 0.0
17/09:00am 23.2 24.3 18.9 77 2.7 SSW 11 13 6 7 1016.9 1016.9 0.0
17/08:30am 22.9 23.6 18.9 78 2.5 SSW 13 15 7 8 1016.6 1016.6 0.0
17/08:00am 22.8 23.2 19.0 79 2.4 SSW 15 17 8 9 1016.3 1016.3 0.0
17/07:30am 22.7 23.2 19.3 81 2.2 S 15 17 8 9 1016.2 1016.2 0.0
17/07:00am 22.4 22.5 19.2 82 2.0 SSW 17 20 9 11 1015.9 1015.9 0.0
17/06:30am 22.3 23.2 19.3 83 1.9 SSW 13 15 7 8 1015.8 1015.8 0.0
17/06:00am 22.3 22.7 18.9 81 2.1 SW 15 17 8 9 1015.8 1015.8 0.0
17/05:30am 22.2 22.2 19.0 82 2.0 SW 17 17 9 9 1015.6 1015.6 0.0
17/05:00am 22.4 23.2 19.0 81 2.1 SW 13 15 7 8 1015.6 1015.6 0.0
17/04:30am 22.4 23.6 19.0 81 2.2 SW 11 13 6 7 1015.6 1015.6 0.0
17/04:00am 22.2 23.1 19.2 83 1.9 SW 13 15 7 8 1015.5 1015.5 0.0
17/03:30am 22.3 23.7 19.5 84 1.8 WSW 11 13 6 7 1015.4 1015.4 0.0
17/03:00am 22.7 24.6 19.7 83 1.9 SW 9 13 5 7 1015.4 1015.4 0.0
17/02:30am 22.6 24.6 19.2 81 2.2 SW 7 9 4 5 1015.3 1015.3 0.0
17/02:00am 22.6 24.1 19.0 80 2.3 SSW 9 11 5 6 1015.5 1015.5 0.0
17/01:30am 22.5 24.3 18.7 79 2.4 SSW 7 9 4 5 1015.9 1015.9 0.0
17/01:00am 22.7 24.7 19.1 80 2.3 SSW 7 9 4 5 1016.0 1016.0 0.0
17/12:30am 23.0 24.4 19.6 81 2.2 S 11 13 6 7 1016.2 1016.2 0.0
17/12:00am 23.4 23.7 19.5 79 2.5 SSE 17 19 9 10 1016.4 1016.4 0.0
 
Date/Time
EST
Temp
°C
App
Temp
°C
Dew
Point
°C
Rel
Hum
%
Delta-T
°C
Wind Press
QNH
hPa
Press
MSL
hPa
Rain since
9am
mm
Dir  Spd
km/h
Gust
km/h
Spd
kts
Gust
kts
16/11:30pm 23.4 22.5 19.1 77 2.7 SSE 22 24 12 13 1016.5 1016.5 0.0
16/11:00pm 23.3 23.0 19.5 79 2.4 SSE 20 22 11 12 1016.5 1016.5 0.0
16/10:30pm 23.4 23.3 19.5 79 2.5 SSE 19 20 10 11 1016.8 1016.8 0.0
16/10:00pm 23.4 23.1 19.5 79 2.5 SSE 20 22 11 12 1016.8 1016.8 0.0
16/09:30pm 23.4 23.5 20.0 81 2.2 SSE 19 22 10 12 1016.8 1016.8 0.0
16/09:00pm 23.3 22.5 20.8 86 1.6 SSE 26 30 14 16 1016.8 1016.8 0.0
16/08:30pm 23.4 22.6 20.9 86 1.6 SE 26 30 14 16 1016.6 1016.6 0.0
16/08:00pm 23.4 21.8 20.7 85 1.8 SE 30 33 16 18 1016.3 1016.3 0.0

Other formats

Comma delimited format used in spreadsheet applications
http://www.bom.gov.au/fwo/IDQ60801/IDQ60801.94285.axf

JavaScript Object Notation format (JSON) in row-major order
http://www.bom.gov.au/fwo/IDQ60801/IDQ60801.94285.json

Data quality

Most of these data are generated automatically and are frequently updated. Quality checks on data are not normally performed. It is possible for incorrect values to appear. Refer to information at About Latest Weather Observations and please check the disclaimer before using these data.